Time;durP1;ratioP1;P1;durP2;ratioP2;P2;SDS_P1;SDS_P2;PMS_P1;PMS_P2;Temp;Humidity;BMP_temperature;BMP_pressure;BME280_temperature;BME280_humidity;BME280_pressure;Samples;Min_cycle;Max_cycle;Signal;HPM_P1;HPM_P2
2023/11/25 00:04:41;;;;;;;25.90;11.20;;;;;;;3.28;100.00;97824.55;671264;1263;140613;-81
2023/11/25 00:20:18;;;;;;;16.80;9.20;;;;;;;3.37;100.00;97839.05;672852;1262;139732;-81
2023/11/25 00:35:55;;;;;;;18.40;10.60;;;;;;;3.35;100.00;97858.20;672611;1264;139605;-81
2023/11/25 00:51:32;;;;;;;18.40;10.70;;;;;;;3.32;100.00;97875.94;675502;1262;139962;-81
2023/11/25 01:07:10;;;;;;;15.40;7.30;;;;;;;3.29;100.00;97894.88;674117;1274;138904;-82
2023/11/25 01:22:47;;;;;;;14.10;7.80;;;;;;;3.23;100.00;97916.05;674814;1260;139743;-81
2023/11/25 01:38:23;;;;;;;8.20;5.50;;;;;;;3.17;100.00;97932.98;675751;1262;139526;-81
2023/11/25 01:54:01;;;;;;;6.30;3.50;;;;;;;3.06;100.00;97955.27;672187;1264;139666;-81
2023/11/25 02:09:38;;;;;;;11.60;3.90;;;;;;;3.00;100.00;97974.98;675905;1263;140088;-81
2023/11/25 02:25:15;;;;;;;6.80;2.90;;;;;;;2.97;100.00;97993.27;673948;1260;139372;-81
2023/11/25 02:40:53;;;;;;;6.00;3.60;;;;;;;2.96;100.00;98018.04;673494;1273;138778;-81
2023/11/25 02:56:30;;;;;;;8.70;5.10;;;;;;;2.98;100.00;98038.18;672158;1258;139654;-81
2023/11/25 03:12:07;;;;;;;11.20;5.40;;;;;;;2.95;100.00;98044.70;673652;1262;139355;-81
2023/11/25 03:27:49;;;;;;;7.80;4.50;;;;;;;2.93;100.00;98051.33;672700;1270;139465;-81
2023/11/25 03:43:26;;;;;;;7.40;4.50;;;;;;;2.88;100.00;98063.46;677043;1263;139396;-81
2023/11/25 03:59:03;;;;;;;4.50;2.90;;;;;;;2.88;100.00;98081.14;675903;1262;138850;-81
2023/11/25 04:14:42;;;;;;;4.80;2.50;;;;;;;2.87;100.00;98108.68;674796;1264;138759;-81
2023/11/25 04:30:20;;;;;;;10.10;3.90;;;;;;;2.90;99.36;98125.25;672354;1273;139476;-82
2023/11/25 04:45:59;;;;;;;8.20;4.50;;;;;;;3.24;94.49;98131.69;674778;1264;140210;-82
2023/11/25 05:01:35;;;;;;;4.50;2.80;;;;;;;3.03;93.70;98154.18;675173;1259;138683;-83
2023/11/25 05:17:12;;;;;;;5.60;3.40;;;;;;;2.89;93.78;98165.80;666257;1263;10224948;-83
2023/11/25 05:32:50;;;;;;;7.70;3.80;;;;;;;2.93;93.50;98177.86;673772;1264;139391;-83
2023/11/25 05:48:27;;;;;;;5.60;2.90;;;;;;;2.93;93.68;98190.95;676582;1264;139351;-82
2023/11/25 06:04:04;;;;;;;;;;;;;;;3.00;93.50;98201.37;673506;1263;139415;-82
2023/11/25 06:19:43;;;;;;;7.80;3.30;;;;;;;3.03;93.90;98224.30;673375;1273;125022;-82
2023/11/25 06:35:23;;;;;;;14.60;9.90;;;;;;;3.17;93.73;98247.37;675388;1261;138906;-82
2023/11/25 06:51:00;;;;;;;30.40;22.00;;;;;;;3.31;93.03;98270.92;678562;1260;139666;-80
2023/11/25 07:06:36;;;;;;;12.00;10.60;;;;;;;2.83;96.49;98286.14;679232;1262;139686;-80
2023/11/25 07:22:17;;;;;;;88.80;34.70;;;;;;;2.90;97.71;98296.80;677103;1260;139616;-80
2023/11/25 07:37:54;;;;;;;74.60;31.60;;;;;;;3.13;98.11;98306.53;676314;1260;140076;-79
2023/11/25 07:53:32;;;;;;;99.80;52.90;;;;;;;3.34;97.98;98322.25;678462;1261;139735;-81
2023/11/25 08:09:12;;;;;;;43.60;28.00;;;;;;;3.48;97.80;98343.11;674178;1262;139056;-78
2023/11/25 08:24:49;;;;;;;64.80;31.20;;;;;;;3.65;97.46;98367.56;678526;1259;138998;-78
2023/11/25 08:40:27;;;;;;;34.90;11.50;;;;;;;3.79;96.67;98386.31;678518;1263;139251;-79
2023/11/25 08:56:06;;;;;;;42.90;15.40;;;;;;;3.76;96.27;98403.55;679051;1264;139639;-81
2023/11/25 09:11:43;;;;;;;52.50;28.90;;;;;;;3.95;96.06;98425.53;676020;1262;139817;-80
2023/11/25 09:27:20;;;;;;;21.40;10.90;;;;;;;5.32;91.36;98438.39;674593;1264;139678;-81
2023/11/25 09:42:57;;;;;;;25.10;18.10;;;;;;;5.20;89.01;98443.32;674693;1265;139268;-80
2023/11/25 09:58:35;;;;;;;11.30;6.10;;;;;;;5.72;91.14;98440.84;674364;1261;140610;-80
2023/11/25 10:14:17;;;;;;;10.40;6.20;;;;;;;5.12;89.17;98449.00;677900;1273;138769;-81
2023/11/25 10:29:54;;;;;;;7.20;5.30;;;;;;;4.65;89.50;98449.71;679256;1262;138960;-79
2023/11/25 10:45:31;;;;;;;14.60;8.50;;;;;;;5.16;90.62;98450.05;678337;1274;141213;-83
2023/11/25 11:01:08;;;;;;;9.90;5.20;;;;;;;7.40;85.41;98459.92;675792;1262;139729;-82
2023/11/25 11:17:15;;;;;;;41.90;18.20;;;;;;;5.89;82.85;98468.90;677390;1259;139610;-83
2023/11/25 11:32:53;;;;;;;16.30;7.90;;;;;;;4.29;88.88;98469.07;677953;1273;138907;-84
2023/11/25 11:48:31;;;;;;;12.90;7.00;;;;;;;4.46;89.45;98470.65;675546;1262;138862;-85
2023/11/25 12:04:08;;;;;;;;;;;;;;;4.12;90.48;98488.08;679418;1262;139041;-81
2023/11/25 12:19:47;;;;;;;18.80;10.00;;;;;;;4.37;90.38;98496.90;676935;1262;125558;-81
2023/11/25 12:35:25;;;;;;;9.40;5.40;;;;;;;4.42;90.46;98492.65;682154;1259;138989;-81
2023/11/25 12:51:10;;;;;;;14.70;7.60;;;;;;;4.48;91.12;98505.23;682302;1260;137932;-82
2023/11/25 13:07:00;;;;;;;16.50;9.20;;;;;;;3.91;90.95;98513.91;682626;1262;22369;-82
2023/11/25 13:22:36;;;;;;;12.30;6.50;;;;;;;3.65;91.57;98525.93;682210;1274;138729;-81
2023/11/25 13:38:15;;;;;;;13.00;8.90;;;;;;;3.55;91.88;98536.29;682593;1259;138620;-80
2023/11/25 13:53:52;;;;;;;63.20;24.40;;;;;;;3.27;92.07;98542.50;682139;1261;140827;-82
2023/11/25 14:09:29;;;;;;;34.40;15.10;;;;;;;3.04;92.04;98565.35;681994;1260;139157;-82
2023/11/25 14:25:09;;;;;;;64.60;25.20;;;;;;;2.83;91.71;98565.50;682541;1262;139925;-81
2023/11/25 14:40:46;;;;;;;30.10;12.90;;;;;;;2.80;92.05;98576.30;682285;1259;139683;-79
2023/11/25 14:56:23;;;;;;;26.80;12.30;;;;;;;2.73;93.08;98580.48;681945;1259;139641;-80
2023/11/25 15:12:00;;;;;;;20.40;9.70;;;;;;;2.54;93.03;98590.63;681872;1259;138972;-81
2023/11/25 15:27:37;;;;;;;22.80;11.10;;;;;;;2.32;92.74;98602.42;681949;1263;138745;-81
2023/11/25 15:43:14;;;;;;;61.70;22.90;;;;;;;2.24;93.19;98611.05;682267;1262;138458;-81
2023/11/25 15:58:51;;;;;;;28.50;14.00;;;;;;;2.38;93.07;98623.86;682158;1263;140791;-83
2023/11/25 16:14:28;;;;;;;48.20;22.30;;;;;;;2.48;93.19;98644.48;682082;1262;138319;-82
2023/11/25 16:30:06;;;;;;;32.30;15.30;;;;;;;2.60;93.49;98651.64;681787;1262;139120;-83
2023/11/25 16:45:42;;;;;;;36.00;17.00;;;;;;;2.67;93.62;98663.16;681875;1262;139517;-83
2023/11/25 17:01:20;;;;;;;35.60;16.60;;;;;;;2.65;94.31;98683.27;682083;1263;139402;-84
2023/11/25 17:17:08;;;;;;;26.60;12.10;;;;;;;2.72;94.62;98702.15;674389;1259;10138492;-83
2023/11/25 17:32:51;;;;;;;229.10;85.40;;;;;;;2.76;95.17;98718.52;682230;1262;139416;-84
2023/11/25 17:48:28;;;;;;;155.40;57.10;;;;;;;2.78;95.47;98732.48;681940;1263;139016;-84
2023/11/25 18:04:05;;;;;;;172.60;69.20;;;;;;;2.69;95.40;98747.23;681839;1260;139132;-83
2023/11/25 18:19:44;;;;;;;58.50;28.90;;;;;;;2.40;94.27;98750.42;682311;1262;138933;-83
2023/11/25 18:35:21;;;;;;;68.60;31.80;;;;;;;2.03;92.97;98761.31;682265;1259;140336;-84
2023/11/25 18:50:58;;;;;;;68.10;30.70;;;;;;;1.65;92.14;98784.50;681913;1262;139464;-84
2023/11/25 19:06:37;;;;;;;76.40;33.00;;;;;;;1.28;91.54;98791.88;681987;1263;139721;-84
2023/11/25 19:22:14;;;;;;;82.50;32.00;;;;;;;0.91;91.17;98802.81;682079;1262;140065;-83
2023/11/25 19:37:51;;;;;;;74.30;30.50;;;;;;;0.93;89.40;98818.89;682259;1259;139245;-82
2023/11/25 19:53:30;;;;;;;91.50;30.20;;;;;;;0.76;88.21;98831.45;681897;1263;138776;-82
2023/11/25 20:09:20;;;;;;;39.60;18.00;;;;;;;0.57;88.35;98845.48;681975;1262;139184;-82
2023/11/25 20:24:59;;;;;;;32.30;14.10;;;;;;;0.39;88.47;98862.37;682160;1263;138762;-82
2023/11/25 20:40:36;;;;;;;20.20;9.60;;;;;;;0.21;89.18;98884.42;682012;1262;139767;-82
2023/11/25 20:56:13;;;;;;;21.60;8.90;;;;;;;0.24;89.37;98898.15;681884;1271;139135;-81
2023/11/25 21:11:53;;;;;;;12.30;7.60;;;;;;;0.46;89.45;98904.04;681859;1262;139421;-81
2023/11/25 21:27:34;;;;;;;17.00;7.70;;;;;;;0.51;89.42;98905.59;681998;1264;138882;-81
2023/11/25 21:43:11;;;;;;;41.80;19.90;;;;;;;0.57;90.55;98914.63;681915;1261;138739;-81
2023/11/25 21:58:48;;;;;;;30.70;15.50;;;;;;;0.85;91.93;98925.96;681904;1264;139733;-81
2023/11/25 22:14:26;;;;;;;20.00;9.20;;;;;;;1.08;92.61;98933.34;681980;1263;140048;-81
2023/11/25 22:30:04;;;;;;;23.50;11.10;;;;;;;1.23;93.05;98958.65;681938;1260;139254;-80
2023/11/25 22:45:40;;;;;;;29.70;12.00;;;;;;;1.22;93.09;98970.44;681753;1263;139191;-81
2023/11/25 23:01:28;;;;;;;16.60;7.90;;;;;;;1.30;93.53;98972.67;681982;1263;139765;-82
2023/11/25 23:17:05;;;;;;;74.20;24.20;;;;;;;1.29;93.38;98978.61;681865;1260;140114;-81
2023/11/25 23:32:34;;;;;;;8.10;3.90;;;;;;;1.41;94.38;98997.89;682268;1263;139082;-80
2023/11/25 23:48:11;;;;;;;8.10;3.70;;;;;;;1.40;94.38;98995.36;682175;1270;140350;-80
